sensor_id;sensor_type;location;lat;lon;timestamp;temperature;humidity
4530;DHT22;2277;51.626;7.516;2022-12-19T00:01:31;2.40;99.90
4530;DHT22;2277;51.626;7.516;2022-12-19T00:03:58;2.40;99.90
4530;DHT22;2277;51.626;7.516;2022-12-19T00:06:25;2.30;99.90
4530;DHT22;2277;51.626;7.516;2022-12-19T00:08:52;2.30;99.90
4530;DHT22;2277;51.626;7.516;2022-12-19T00:11:20;2.30;99.90
4530;DHT22;2277;51.626;7.516;2022-12-19T00:13:46;2.30;99.90
4530;DHT22;2277;51.626;7.516;2022-12-19T00:16:18;2.30;99.90
4530;DHT22;2277;51.626;7.516;2022-12-19T00:18:45;2.40;99.90
4530;DHT22;2277;51.626;7.516;2022-12-19T00:21:13;2.50;99.90
4530;DHT22;2277;51.626;7.516;2022-12-19T00:23:42;2.50;99.90
4530;DHT22;2277;51.626;7.516;2022-12-19T00:26:10;2.40;99.90
4530;DHT22;2277;51.626;7.516;2022-12-19T00:28:39;2.60;99.90
4530;DHT22;2277;51.626;7.516;2022-12-19T00:31:06;2.50;99.90
4530;DHT22;2277;51.626;7.516;2022-12-19T00:33:32;2.50;99.90
4530;DHT22;2277;51.626;7.516;2022-12-19T00:35:59;2.50;99.90
4530;DHT22;2277;51.626;7.516;2022-12-19T00:38:25;2.50;99.90
4530;DHT22;2277;51.626;7.516;2022-12-19T00:40:51;2.60;99.90
4530;DHT22;2277;51.626;7.516;2022-12-19T00:43:17;2.50;99.90
4530;DHT22;2277;51.626;7.516;2022-12-19T00:45:42;2.60;99.90
4530;DHT22;2277;51.626;7.516;2022-12-19T00:48:08;2.60;99.90
4530;DHT22;2277;51.626;7.516;2022-12-19T00:50:34;2.70;99.90
4530;DHT22;2277;51.626;7.516;2022-12-19T00:52:59;2.80;99.90
4530;DHT22;2277;51.626;7.516;2022-12-19T00:55:25;2.80;99.90
4530;DHT22;2277;51.626;7.516;2022-12-19T00:57:50;2.70;99.90
4530;DHT22;2277;51.626;7.516;2022-12-19T01:00:16;2.80;99.90
4530;DHT22;2277;51.626;7.516;2022-12-19T01:02:42;2.80;99.90
4530;DHT22;2277;51.626;7.516;2022-12-19T01:05:09;2.80;99.90
4530;DHT22;2277;51.626;7.516;2022-12-19T01:07:35;2.70;99.90
4530;DHT22;2277;51.626;7.516;2022-12-19T01:10:02;2.90;99.90
4530;DHT22;2277;51.626;7.516;2022-12-19T01:12:27;2.90;99.90
4530;DHT22;2277;51.626;7.516;2022-12-19T01:15:16;2.80;99.90
4530;DHT22;2277;51.626;7.516;2022-12-19T01:17:42;2.90;99.90
4530;DHT22;2277;51.626;7.516;2022-12-19T01:20:09;2.80;99.90
4530;DHT22;2277;51.626;7.516;2022-12-19T01:22:34;2.90;99.90
4530;DHT22;2277;51.626;7.516;2022-12-19T01:25:00;2.90;99.90
4530;DHT22;2277;51.626;7.516;2022-12-19T01:27:26;2.90;99.90
4530;DHT22;2277;51.626;7.516;2022-12-19T01:29:51;3.00;99.90
4530;DHT22;2277;51.626;7.516;2022-12-19T01:32:17;2.80;99.90
4530;DHT22;2277;51.626;7.516;2022-12-19T01:34:42;2.80;99.90
4530;DHT22;2277;51.626;7.516;2022-12-19T01:37:08;2.80;99.90
4530;DHT22;2277;51.626;7.516;2022-12-19T01:39:33;2.80;99.90
4530;DHT22;2277;51.626;7.516;2022-12-19T01:41:59;2.80;99.90
4530;DHT22;2277;51.626;7.516;2022-12-19T01:44:25;2.90;99.90
4530;DHT22;2277;51.626;7.516;2022-12-19T01:46:53;2.90;99.90
4530;DHT22;2277;51.626;7.516;2022-12-19T01:49:26;3.00;99.90
4530;DHT22;2277;51.626;7.516;2022-12-19T01:51:55;3.00;99.90
4530;DHT22;2277;51.626;7.516;2022-12-19T01:54:28;3.10;99.90
4530;DHT22;2277;51.626;7.516;2022-12-19T01:56:58;3.20;99.90
4530;DHT22;2277;51.626;7.516;2022-12-19T01:59:32;3.10;99.90
4530;DHT22;2277;51.626;7.516;2022-12-19T02:04:45;3.10;99.90
4530;DHT22;2277;51.626;7.516;2022-12-19T02:07:13;3.30;99.90
4530;DHT22;2277;51.626;7.516;2022-12-19T02:09:40;3.20;99.90
4530;DHT22;2277;51.626;7.516;2022-12-19T02:12:06;3.20;99.90
4530;DHT22;2277;51.626;7.516;2022-12-19T02:14:32;3.20;99.90
4530;DHT22;2277;51.626;7.516;2022-12-19T02:37:01;3.60;99.90
4530;DHT22;2277;51.626;7.516;2022-12-19T02:42:04;3.60;99.90
4530;DHT22;2277;51.626;7.516;2022-12-19T02:44:44;3.60;99.90
4530;DHT22;2277;51.626;7.516;2022-12-19T02:47:12;3.60;99.90
4530;DHT22;2277;51.626;7.516;2022-12-19T02:49:38;3.70;99.90
4530;DHT22;2277;51.626;7.516;2022-12-19T02:54:52;3.80;99.90
4530;DHT22;2277;51.626;7.516;2022-12-19T02:57:39;3.90;99.90
4530;DHT22;2277;51.626;7.516;2022-12-19T03:00:19;3.90;99.90
4530;DHT22;2277;51.626;7.516;2022-12-19T03:11:13;4.00;99.90
4530;DHT22;2277;51.626;7.516;2022-12-19T03:14:02;4.10;99.90
4530;DHT22;2277;51.626;7.516;2022-12-19T03:16:33;4.00;99.90
4530;DHT22;2277;51.626;7.516;2022-12-19T03:18:59;4.10;99.90
4530;DHT22;2277;51.626;7.516;2022-12-19T03:21:34;4.10;99.90
4530;DHT22;2277;51.626;7.516;2022-12-19T03:24:02;4.20;99.90
4530;DHT22;2277;51.626;7.516;2022-12-19T03:26:40;4.20;99.90
4530;DHT22;2277;51.626;7.516;2022-12-19T03:29:24;4.30;99.90
4530;DHT22;2277;51.626;7.516;2022-12-19T03:31:53;4.30;99.90
4530;DHT22;2277;51.626;7.516;2022-12-19T03:34:30;4.30;99.90
4530;DHT22;2277;51.626;7.516;2022-12-19T03:37:01;4.30;99.90
4530;DHT22;2277;51.626;7.516;2022-12-19T03:39:28;4.30;99.90
4530;DHT22;2277;51.626;7.516;2022-12-19T03:41:56;4.40;99.90
4530;DHT22;2277;51.626;7.516;2022-12-19T03:44:42;4.50;99.90
4530;DHT22;2277;51.626;7.516;2022-12-19T03:47:21;4.50;99.90
4530;DHT22;2277;51.626;7.516;2022-12-19T03:49:47;4.60;99.90
4530;DHT22;2277;51.626;7.516;2022-12-19T03:58:05;4.60;99.90
4530;DHT22;2277;51.626;7.516;2022-12-19T04:00:35;4.70;99.90
4530;DHT22;2277;51.626;7.516;2022-12-19T04:03:03;4.70;99.90
4530;DHT22;2277;51.626;7.516;2022-12-19T04:05:30;4.80;99.90
4530;DHT22;2277;51.626;7.516;2022-12-19T04:08:02;4.80;99.90
4530;DHT22;2277;51.626;7.516;2022-12-19T04:10:29;4.90;99.90
4530;DHT22;2277;51.626;7.516;2022-12-19T04:13:04;4.90;99.90
4530;DHT22;2277;51.626;7.516;2022-12-19T04:18:19;4.90;99.90
4530;DHT22;2277;51.626;7.516;2022-12-19T04:20:52;4.90;99.90
4530;DHT22;2277;51.626;7.516;2022-12-19T04:23:33;4.90;99.90
4530;DHT22;2277;51.626;7.516;2022-12-19T04:26:03;5.00;99.90
4530;DHT22;2277;51.626;7.516;2022-12-19T04:31:04;4.90;99.90
4530;DHT22;2277;51.626;7.516;2022-12-19T04:33:31;4.90;99.90
4530;DHT22;2277;51.626;7.516;2022-12-19T04:35:56;4.90;99.90
4530;DHT22;2277;51.626;7.516;2022-12-19T04:38:22;4.90;99.90
4530;DHT22;2277;51.626;7.516;2022-12-19T04:40:47;5.00;99.90
4530;DHT22;2277;51.626;7.516;2022-12-19T04:43:13;5.20;99.90
4530;DHT22;2277;51.626;7.516;2022-12-19T04:45:42;5.10;99.90
4530;DHT22;2277;51.626;7.516;2022-12-19T04:48:08;5.10;99.90
4530;DHT22;2277;51.626;7.516;2022-12-19T04:50:34;5.20;99.90
4530;DHT22;2277;51.626;7.516;2022-12-19T04:53:00;5.20;99.90
4530;DHT22;2277;51.626;7.516;2022-12-19T04:55:25;5.20;99.90
4530;DHT22;2277;51.626;7.516;2022-12-19T04:57:51;5.30;99.90
4530;DHT22;2277;51.626;7.516;2022-12-19T05:00:17;5.30;99.90
4530;DHT22;2277;51.626;7.516;2022-12-19T05:02:42;5.30;99.90
4530;DHT22;2277;51.626;7.516;2022-12-19T05:05:08;5.20;99.90
4530;DHT22;2277;51.626;7.516;2022-12-19T05:07:34;5.30;99.90
4530;DHT22;2277;51.626;7.516;2022-12-19T05:10:00;5.40;99.90
4530;DHT22;2277;51.626;7.516;2022-12-19T05:12:27;5.50;99.90
4530;DHT22;2277;51.626;7.516;2022-12-19T05:14:53;5.40;99.90
4530;DHT22;2277;51.626;7.516;2022-12-19T05:17:18;5.40;99.90
4530;DHT22;2277;51.626;7.516;2022-12-19T05:19:44;5.40;99.90
4530;DHT22;2277;51.626;7.516;2022-12-19T05:22:09;5.60;99.90
4530;DHT22;2277;51.626;7.516;2022-12-19T05:24:35;5.50;99.90
4530;DHT22;2277;51.626;7.516;2022-12-19T05:27:00;5.60;99.90
4530;DHT22;2277;51.626;7.516;2022-12-19T05:29:26;5.60;99.90
4530;DHT22;2277;51.626;7.516;2022-12-19T05:31:52;5.70;99.90
4530;DHT22;2277;51.626;7.516;2022-12-19T05:34:17;5.60;99.90
4530;DHT22;2277;51.626;7.516;2022-12-19T05:36:43;5.80;99.90
4530;DHT22;2277;51.626;7.516;2022-12-19T05:39:08;5.80;99.90
4530;DHT22;2277;51.626;7.516;2022-12-19T05:41:34;5.80;99.90
4530;DHT22;2277;51.626;7.516;2022-12-19T05:44:00;5.90;99.90
4530;DHT22;2277;51.626;7.516;2022-12-19T05:46:25;6.00;99.90
4530;DHT22;2277;51.626;7.516;2022-12-19T05:48:52;6.10;99.90
4530;DHT22;2277;51.626;7.516;2022-12-19T05:51:17;6.00;99.90
4530;DHT22;2277;51.626;7.516;2022-12-19T05:53:43;6.00;99.90
4530;DHT22;2277;51.626;7.516;2022-12-19T05:56:14;6.10;99.90
4530;DHT22;2277;51.626;7.516;2022-12-19T05:58:41;6.10;99.90
4530;DHT22;2277;51.626;7.516;2022-12-19T06:01:08;6.10;99.90
4530;DHT22;2277;51.626;7.516;2022-12-19T06:03:34;6.20;99.90
4530;DHT22;2277;51.626;7.516;2022-12-19T06:06:07;6.10;99.90
4530;DHT22;2277;51.626;7.516;2022-12-19T06:08:33;6.30;99.90
4530;DHT22;2277;51.626;7.516;2022-12-19T06:11:01;6.30;99.90
4530;DHT22;2277;51.626;7.516;2022-12-19T06:13:28;6.40;99.90
4530;DHT22;2277;51.626;7.516;2022-12-19T06:16:08;6.40;99.90
4530;DHT22;2277;51.626;7.516;2022-12-19T06:18:35;6.40;99.90
4530;DHT22;2277;51.626;7.516;2022-12-19T06:21:03;6.40;99.90
4530;DHT22;2277;51.626;7.516;2022-12-19T06:23:30;6.40;99.90
4530;DHT22;2277;51.626;7.516;2022-12-19T06:25:57;6.20;99.90
4530;DHT22;2277;51.626;7.516;2022-12-19T06:28:24;6.30;99.90
4530;DHT22;2277;51.626;7.516;2022-12-19T06:30:50;6.50;99.90
4530;DHT22;2277;51.626;7.516;2022-12-19T06:33:16;6.40;99.90
4530;DHT22;2277;51.626;7.516;2022-12-19T06:35:41;6.50;99.90
4530;DHT22;2277;51.626;7.516;2022-12-19T06:38:07;6.40;99.90
4530;DHT22;2277;51.626;7.516;2022-12-19T06:40:33;6.50;99.90
4530;DHT22;2277;51.626;7.516;2022-12-19T06:43:17;6.50;99.90
4530;DHT22;2277;51.626;7.516;2022-12-19T06:45:42;6.50;99.90
4530;DHT22;2277;51.626;7.516;2022-12-19T06:48:08;6.50;99.90
4530;DHT22;2277;51.626;7.516;2022-12-19T06:50:33;6.60;99.90
4530;DHT22;2277;51.626;7.516;2022-12-19T06:53:00;6.60;99.90
4530;DHT22;2277;51.626;7.516;2022-12-19T06:55:26;6.50;99.90
4530;DHT22;2277;51.626;7.516;2022-12-19T06:57:51;6.50;99.90
4530;DHT22;2277;51.626;7.516;2022-12-19T07:00:17;6.50;99.90
4530;DHT22;2277;51.626;7.516;2022-12-19T07:02:45;6.50;99.90
4530;DHT22;2277;51.626;7.516;2022-12-19T07:05:13;6.50;99.90
4530;DHT22;2277;51.626;7.516;2022-12-19T07:07:38;6.50;99.90
4530;DHT22;2277;51.626;7.516;2022-12-19T07:10:06;6.60;99.90
4530;DHT22;2277;51.626;7.516;2022-12-19T07:12:32;6.50;99.90
4530;DHT22;2277;51.626;7.516;2022-12-19T07:14:58;6.50;99.90
4530;DHT22;2277;51.626;7.516;2022-12-19T07:17:24;6.50;99.90
4530;DHT22;2277;51.626;7.516;2022-12-19T07:19:52;6.50;99.90
4530;DHT22;2277;51.626;7.516;2022-12-19T07:22:18;6.50;99.90
4530;DHT22;2277;51.626;7.516;2022-12-19T07:24:44;6.70;99.90
4530;DHT22;2277;51.626;7.516;2022-12-19T07:27:11;6.70;99.90
4530;DHT22;2277;51.626;7.516;2022-12-19T07:29:36;6.70;99.90
4530;DHT22;2277;51.626;7.516;2022-12-19T07:32:02;6.70;99.90
4530;DHT22;2277;51.626;7.516;2022-12-19T07:34:28;6.80;99.90
4530;DHT22;2277;51.626;7.516;2022-12-19T07:36:54;6.80;99.90
4530;DHT22;2277;51.626;7.516;2022-12-19T07:39:20;6.80;99.90
4530;DHT22;2277;51.626;7.516;2022-12-19T07:41:46;6.90;99.90
4530;DHT22;2277;51.626;7.516;2022-12-19T07:44:12;6.90;99.90
4530;DHT22;2277;51.626;7.516;2022-12-19T07:46:37;7.00;99.90
4530;DHT22;2277;51.626;7.516;2022-12-19T07:49:03;7.00;99.90
4530;DHT22;2277;51.626;7.516;2022-12-19T07:51:29;7.00;99.90
4530;DHT22;2277;51.626;7.516;2022-12-19T07:53:54;6.90;99.90
4530;DHT22;2277;51.626;7.516;2022-12-19T07:56:20;7.00;99.90
4530;DHT22;2277;51.626;7.516;2022-12-19T07:58:46;7.00;99.90
4530;DHT22;2277;51.626;7.516;2022-12-19T08:01:11;7.10;99.90
4530;DHT22;2277;51.626;7.516;2022-12-19T08:03:37;7.20;99.90
4530;DHT22;2277;51.626;7.516;2022-12-19T08:06:04;7.10;99.90
4530;DHT22;2277;51.626;7.516;2022-12-19T08:08:31;7.20;99.90
4530;DHT22;2277;51.626;7.516;2022-12-19T08:11:11;7.20;99.90
4530;DHT22;2277;51.626;7.516;2022-12-19T08:13:38;7.20;99.90
4530;DHT22;2277;51.626;7.516;2022-12-19T08:16:04;7.20;99.90
4530;DHT22;2277;51.626;7.516;2022-12-19T08:18:30;7.20;99.90
4530;DHT22;2277;51.626;7.516;2022-12-19T08:20:55;7.30;99.90
4530;DHT22;2277;51.626;7.516;2022-12-19T08:23:21;7.30;99.90
4530;DHT22;2277;51.626;7.516;2022-12-19T08:25:47;7.40;99.90
4530;DHT22;2277;51.626;7.516;2022-12-19T08:28:13;7.30;99.90
4530;DHT22;2277;51.626;7.516;2022-12-19T08:30:39;7.40;99.90
4530;DHT22;2277;51.626;7.516;2022-12-19T08:33:05;7.40;99.90
4530;DHT22;2277;51.626;7.516;2022-12-19T08:35:31;7.50;99.90
4530;DHT22;2277;51.626;7.516;2022-12-19T08:37:57;7.50;99.90
4530;DHT22;2277;51.626;7.516;2022-12-19T08:40:23;7.60;99.90
4530;DHT22;2277;51.626;7.516;2022-12-19T08:42:49;7.60;99.90
4530;DHT22;2277;51.626;7.516;2022-12-19T08:45:16;7.60;99.90
4530;DHT22;2277;51.626;7.516;2022-12-19T08:47:43;7.60;99.90
4530;DHT22;2277;51.626;7.516;2022-12-19T08:50:09;7.70;99.90
4530;DHT22;2277;51.626;7.516;2022-12-19T08:52:35;7.60;99.90
4530;DHT22;2277;51.626;7.516;2022-12-19T08:55:00;7.70;99.90
4530;DHT22;2277;51.626;7.516;2022-12-19T08:57:26;7.80;99.90
4530;DHT22;2277;51.626;7.516;2022-12-19T08:59:52;7.70;99.90
4530;DHT22;2277;51.626;7.516;2022-12-19T09:02:17;7.70;99.90
4530;DHT22;2277;51.626;7.516;2022-12-19T09:04:43;7.80;99.90
4530;DHT22;2277;51.626;7.516;2022-12-19T09:07:09;7.80;99.90
4530;DHT22;2277;51.626;7.516;2022-12-19T09:09:34;7.90;99.90
4530;DHT22;2277;51.626;7.516;2022-12-19T09:12:00;7.90;99.90
4530;DHT22;2277;51.626;7.516;2022-12-19T09:14:25;7.90;99.90
4530;DHT22;2277;51.626;7.516;2022-12-19T09:16:51;7.90;99.90
4530;DHT22;2277;51.626;7.516;2022-12-19T09:19:17;7.90;99.90
4530;DHT22;2277;51.626;7.516;2022-12-19T09:21:43;8.00;99.90
4530;DHT22;2277;51.626;7.516;2022-12-19T09:24:09;8.00;99.90
4530;DHT22;2277;51.626;7.516;2022-12-19T09:26:36;8.00;99.90
4530;DHT22;2277;51.626;7.516;2022-12-19T09:29:03;8.10;99.90
4530;DHT22;2277;51.626;7.516;2022-12-19T09:31:30;8.00;99.90
4530;DHT22;2277;51.626;7.516;2022-12-19T09:33:55;7.90;99.90
4530;DHT22;2277;51.626;7.516;2022-12-19T09:36:23;8.00;99.90
4530;DHT22;2277;51.626;7.516;2022-12-19T09:38:53;8.00;99.90
4530;DHT22;2277;51.626;7.516;2022-12-19T09:41:32;8.10;99.90
4530;DHT22;2277;51.626;7.516;2022-12-19T09:47:03;8.20;99.90
4530;DHT22;2277;51.626;7.516;2022-12-19T09:49:41;8.30;99.90
4530;DHT22;2277;51.626;7.516;2022-12-19T09:54:59;8.40;99.90
4530;DHT22;2277;51.626;7.516;2022-12-19T10:00:19;8.40;99.90
4530;DHT22;2277;51.626;7.516;2022-12-19T10:05:23;8.40;99.90
4530;DHT22;2277;51.626;7.516;2022-12-19T10:07:50;8.50;99.90
4530;DHT22;2277;51.626;7.516;2022-12-19T10:10:17;8.50;99.90
4530;DHT22;2277;51.626;7.516;2022-12-19T10:13:28;8.50;99.90
4530;DHT22;2277;51.626;7.516;2022-12-19T10:16:09;8.60;99.90
4530;DHT22;2277;51.626;7.516;2022-12-19T10:18:57;8.60;99.90
4530;DHT22;2277;51.626;7.516;2022-12-19T10:21:52;8.60;99.90
4530;DHT22;2277;51.626;7.516;2022-12-19T10:26:55;8.70;99.90
4530;DHT22;2277;51.626;7.516;2022-12-19T10:34:41;8.70;99.90
4530;DHT22;2277;51.626;7.516;2022-12-19T10:37:35;8.80;99.90
4530;DHT22;2277;51.626;7.516;2022-12-19T10:40:26;8.90;99.90
4530;DHT22;2277;51.626;7.516;2022-12-19T10:43:19;8.90;99.90
4530;DHT22;2277;51.626;7.516;2022-12-19T10:45:53;9.00;99.90
4530;DHT22;2277;51.626;7.516;2022-12-19T10:48:22;9.00;99.90
4530;DHT22;2277;51.626;7.516;2022-12-19T10:50:49;9.10;99.90
4530;DHT22;2277;51.626;7.516;2022-12-19T10:53:16;9.10;99.90
4530;DHT22;2277;51.626;7.516;2022-12-19T10:55:51;9.10;99.90
4530;DHT22;2277;51.626;7.516;2022-12-19T10:58:19;9.20;99.90
4530;DHT22;2277;51.626;7.516;2022-12-19T11:01:08;9.20;99.90
4530;DHT22;2277;51.626;7.516;2022-12-19T11:03:35;9.20;99.90
4530;DHT22;2277;51.626;7.516;2022-12-19T11:06:02;9.20;99.90
4530;DHT22;2277;51.626;7.516;2022-12-19T11:08:37;9.20;99.90
4530;DHT22;2277;51.626;7.516;2022-12-19T11:13:37;9.30;99.90
4530;DHT22;2277;51.626;7.516;2022-12-19T11:16:05;9.30;99.90
4530;DHT22;2277;51.626;7.516;2022-12-19T11:18:39;9.30;99.90
4530;DHT22;2277;51.626;7.516;2022-12-19T11:21:16;9.20;99.90
4530;DHT22;2277;51.626;7.516;2022-12-19T11:24:12;9.30;99.90
4530;DHT22;2277;51.626;7.516;2022-12-19T11:29:27;9.30;99.90
4530;DHT22;2277;51.626;7.516;2022-12-19T11:32:02;9.40;99.90
4530;DHT22;2277;51.626;7.516;2022-12-19T11:34:30;9.40;99.90
4530;DHT22;2277;51.626;7.516;2022-12-19T11:40:32;9.50;99.90
4530;DHT22;2277;51.626;7.516;2022-12-19T11:42:53;9.50;99.90
4530;DHT22;2277;51.626;7.516;2022-12-19T11:48:11;9.50;99.90
4530;DHT22;2277;51.626;7.516;2022-12-19T11:53:33;9.40;99.90
4530;DHT22;2277;51.626;7.516;2022-12-19T11:56:10;9.50;99.90
4530;DHT22;2277;51.626;7.516;2022-12-19T11:58:36;9.50;99.90
4530;DHT22;2277;51.626;7.516;2022-12-19T12:06:51;9.60;99.90
4530;DHT22;2277;51.626;7.516;2022-12-19T12:18:46;9.50;99.90
4530;DHT22;2277;51.626;7.516;2022-12-19T12:23:53;9.60;99.90
4530;DHT22;2277;51.626;7.516;2022-12-19T12:26:32;9.60;99.90
4530;DHT22;2277;51.626;7.516;2022-12-19T12:31:59;9.60;99.90
4530;DHT22;2277;51.626;7.516;2022-12-19T12:37:28;9.70;99.90
4530;DHT22;2277;51.626;7.516;2022-12-19T12:42:52;9.70;99.90
4530;DHT22;2277;51.626;7.516;2022-12-19T12:45:40;9.70;99.90
4530;DHT22;2277;51.626;7.516;2022-12-19T12:48:44;9.70;99.90
4530;DHT22;2277;51.626;7.516;2022-12-19T12:51:12;9.70;99.90
4530;DHT22;2277;51.626;7.516;2022-12-19T12:53:41;9.80;99.90
4530;DHT22;2277;51.626;7.516;2022-12-19T12:56:09;9.70;99.90
4530;DHT22;2277;51.626;7.516;2022-12-19T13:01:38;9.90;99.90
4530;DHT22;2277;51.626;7.516;2022-12-19T13:06:38;9.70;99.90
4530;DHT22;2277;51.626;7.516;2022-12-19T13:11:39;9.80;99.90
4530;DHT22;2277;51.626;7.516;2022-12-19T13:14:44;9.80;99.90
4530;DHT22;2277;51.626;7.516;2022-12-19T13:22:44;10.00;99.90
4530;DHT22;2277;51.626;7.516;2022-12-19T13:36:44;10.10;99.90
4530;DHT22;2277;51.626;7.516;2022-12-19T13:39:28;10.20;99.90
4530;DHT22;2277;51.626;7.516;2022-12-19T13:42:13;10.10;99.90
4530;DHT22;2277;51.626;7.516;2022-12-19T13:45:13;10.00;99.90
4530;DHT22;2277;51.626;7.516;2022-12-19T13:47:42;10.00;99.90
4530;DHT22;2277;51.626;7.516;2022-12-19T13:50:25;10.10;99.90
4530;DHT22;2277;51.626;7.516;2022-12-19T13:52:54;9.90;99.90
4530;DHT22;2277;51.626;7.516;2022-12-19T13:55:19;10.00;99.90
4530;DHT22;2277;51.626;7.516;2022-12-19T13:57:51;9.90;99.90
4530;DHT22;2277;51.626;7.516;2022-12-19T14:00:21;9.90;99.90
4530;DHT22;2277;51.626;7.516;2022-12-19T14:02:53;10.00;99.90
4530;DHT22;2277;51.626;7.516;2022-12-19T14:05:38;10.10;99.90
4530;DHT22;2277;51.626;7.516;2022-12-19T14:08:05;10.10;99.90
4530;DHT22;2277;51.626;7.516;2022-12-19T14:10:33;10.00;99.90
4530;DHT22;2277;51.626;7.516;2022-12-19T14:13:03;10.00;99.90
4530;DHT22;2277;51.626;7.516;2022-12-19T14:15:48;10.00;99.90
4530;DHT22;2277;51.626;7.516;2022-12-19T14:18:19;10.00;99.90
4530;DHT22;2277;51.626;7.516;2022-12-19T14:20:46;10.20;99.90
4530;DHT22;2277;51.626;7.516;2022-12-19T14:23:12;10.20;99.90
4530;DHT22;2277;51.626;7.516;2022-12-19T14:28:10;10.30;99.90
4530;DHT22;2277;51.626;7.516;2022-12-19T14:30:39;10.30;99.90
4530;DHT22;2277;51.626;7.516;2022-12-19T14:33:12;10.10;99.90
4530;DHT22;2277;51.626;7.516;2022-12-19T14:35:44;10.10;99.90
4530;DHT22;2277;51.626;7.516;2022-12-19T14:38:14;10.30;99.90
4530;DHT22;2277;51.626;7.516;2022-12-19T14:40:41;10.30;99.90
4530;DHT22;2277;51.626;7.516;2022-12-19T14:43:21;10.10;99.90
4530;DHT22;2277;51.626;7.516;2022-12-19T14:48:52;10.00;99.90
4530;DHT22;2277;51.626;7.516;2022-12-19T14:51:35;9.90;99.90
4530;DHT22;2277;51.626;7.516;2022-12-19T14:56:51;9.90;99.90
4530;DHT22;2277;51.626;7.516;2022-12-19T14:59:35;9.80;99.90
4530;DHT22;2277;51.626;7.516;2022-12-19T15:05:19;9.80;99.90
4530;DHT22;2277;51.626;7.516;2022-12-19T15:07:28;9.90;99.90
4530;DHT22;2277;51.626;7.516;2022-12-19T15:10:06;9.70;99.90
4530;DHT22;2277;51.626;7.516;2022-12-19T15:12:34;9.60;99.90
4530;DHT22;2277;51.626;7.516;2022-12-19T15:16:02;9.70;99.90
4530;DHT22;2277;51.626;7.516;2022-12-19T15:20:59;9.60;99.90
4530;DHT22;2277;51.626;7.516;2022-12-19T15:23:26;9.40;99.90
4530;DHT22;2277;51.626;7.516;2022-12-19T15:25:53;9.50;99.90
4530;DHT22;2277;51.626;7.516;2022-12-19T15:28:21;9.50;99.90
4530;DHT22;2277;51.626;7.516;2022-12-19T15:30:54;9.40;99.90
4530;DHT22;2277;51.626;7.516;2022-12-19T15:33:21;9.40;99.90
4530;DHT22;2277;51.626;7.516;2022-12-19T15:35:47;9.40;99.90
4530;DHT22;2277;51.626;7.516;2022-12-19T15:38:13;9.60;99.90
4530;DHT22;2277;51.626;7.516;2022-12-19T15:40:40;9.70;99.90
4530;DHT22;2277;51.626;7.516;2022-12-19T15:43:14;9.60;99.90
4530;DHT22;2277;51.626;7.516;2022-12-19T15:45:41;9.60;99.90
4530;DHT22;2277;51.626;7.516;2022-12-19T15:48:17;9.50;99.90
4530;DHT22;2277;51.626;7.516;2022-12-19T15:50:43;9.50;99.90
4530;DHT22;2277;51.626;7.516;2022-12-19T15:53:27;9.50;99.90
4530;DHT22;2277;51.626;7.516;2022-12-19T15:55:55;9.50;99.90
4530;DHT22;2277;51.626;7.516;2022-12-19T15:58:24;9.50;99.90
4530;DHT22;2277;51.626;7.516;2022-12-19T16:00:57;9.40;99.90
4530;DHT22;2277;51.626;7.516;2022-12-19T16:03:24;9.40;99.90
4530;DHT22;2277;51.626;7.516;2022-12-19T16:05:51;9.40;99.90
4530;DHT22;2277;51.626;7.516;2022-12-19T16:08:19;9.30;99.90
4530;DHT22;2277;51.626;7.516;2022-12-19T16:10:47;9.30;99.90
4530;DHT22;2277;51.626;7.516;2022-12-19T16:13:26;9.30;99.90
4530;DHT22;2277;51.626;7.516;2022-12-19T16:15:53;9.20;99.90
4530;DHT22;2277;51.626;7.516;2022-12-19T16:18:19;9.30;99.90
4530;DHT22;2277;51.626;7.516;2022-12-19T16:20:46;9.20;99.90
4530;DHT22;2277;51.626;7.516;2022-12-19T16:23:12;9.20;99.90
4530;DHT22;2277;51.626;7.516;2022-12-19T16:25:41;9.10;99.90
4530;DHT22;2277;51.626;7.516;2022-12-19T16:28:22;9.20;99.90
4530;DHT22;2277;51.626;7.516;2022-12-19T16:30:50;9.20;99.90
4530;DHT22;2277;51.626;7.516;2022-12-19T16:33:22;9.40;99.90
4530;DHT22;2277;51.626;7.516;2022-12-19T16:35:48;9.30;99.90
4530;DHT22;2277;51.626;7.516;2022-12-19T16:38:15;9.30;99.90
4530;DHT22;2277;51.626;7.516;2022-12-19T16:40:41;9.40;99.90
4530;DHT22;2277;51.626;7.516;2022-12-19T16:43:14;9.40;99.90
4530;DHT22;2277;51.626;7.516;2022-12-19T16:45:41;9.40;99.90
4530;DHT22;2277;51.626;7.516;2022-12-19T16:48:21;9.60;99.90
4530;DHT22;2277;51.626;7.516;2022-12-19T16:50:47;9.70;99.90
4530;DHT22;2277;51.626;7.516;2022-12-19T16:53:14;9.80;99.90
4530;DHT22;2277;51.626;7.516;2022-12-19T16:55:39;9.70;99.90
4530;DHT22;2277;51.626;7.516;2022-12-19T16:58:05;9.80;99.90
4530;DHT22;2277;51.626;7.516;2022-12-19T17:00:34;9.90;99.90
4530;DHT22;2277;51.626;7.516;2022-12-19T17:03:15;10.00;99.90
4530;DHT22;2277;51.626;7.516;2022-12-19T17:05:48;10.10;99.90
4530;DHT22;2277;51.626;7.516;2022-12-19T17:08:14;10.10;99.90
4530;DHT22;2277;51.626;7.516;2022-12-19T17:10:43;10.20;99.90
4530;DHT22;2277;51.626;7.516;2022-12-19T17:13:09;10.10;99.90
4530;DHT22;2277;51.626;7.516;2022-12-19T17:15:37;10.20;99.90
4530;DHT22;2277;51.626;7.516;2022-12-19T17:18:09;10.30;99.90
4530;DHT22;2277;51.626;7.516;2022-12-19T17:20:38;10.30;99.90
4530;DHT22;2277;51.626;7.516;2022-12-19T17:23:18;10.20;99.90
4530;DHT22;2277;51.626;7.516;2022-12-19T17:25:44;10.20;99.90
4530;DHT22;2277;51.626;7.516;2022-12-19T17:28:10;10.30;99.90
4530;DHT22;2277;51.626;7.516;2022-12-19T17:30:38;10.30;99.90
4530;DHT22;2277;51.626;7.516;2022-12-19T17:33:04;10.30;99.90
4530;DHT22;2277;51.626;7.516;2022-12-19T17:35:34;10.50;99.90
4530;DHT22;2277;51.626;7.516;2022-12-19T17:38:00;10.60;99.90
4530;DHT22;2277;51.626;7.516;2022-12-19T17:40:31;10.60;99.90
4530;DHT22;2277;51.626;7.516;2022-12-19T17:42:57;10.60;99.90
4530;DHT22;2277;51.626;7.516;2022-12-19T17:45:26;10.60;99.90
4530;DHT22;2277;51.626;7.516;2022-12-19T17:47:52;10.70;99.90
4530;DHT22;2277;51.626;7.516;2022-12-19T17:50:23;10.70;99.90
4530;DHT22;2277;51.626;7.516;2022-12-19T17:52:51;10.70;99.90
4530;DHT22;2277;51.626;7.516;2022-12-19T17:55:21;10.60;99.90
4530;DHT22;2277;51.626;7.516;2022-12-19T17:57:48;10.60;99.90
4530;DHT22;2277;51.626;7.516;2022-12-19T18:00:15;10.80;99.90
4530;DHT22;2277;51.626;7.516;2022-12-19T18:02:41;10.80;99.90
4530;DHT22;2277;51.626;7.516;2022-12-19T18:05:15;10.90;99.90
4530;DHT22;2277;51.626;7.516;2022-12-19T18:07:43;10.80;99.90
4530;DHT22;2277;51.626;7.516;2022-12-19T18:10:23;10.80;99.90
4530;DHT22;2277;51.626;7.516;2022-12-19T18:12:50;10.80;99.90
4530;DHT22;2277;51.626;7.516;2022-12-19T18:15:16;10.80;99.90
4530;DHT22;2277;51.626;7.516;2022-12-19T18:17:42;10.70;99.90
4530;DHT22;2277;51.626;7.516;2022-12-19T18:20:26;10.70;99.90
4530;DHT22;2277;51.626;7.516;2022-12-19T18:22:53;10.70;99.90
4530;DHT22;2277;51.626;7.516;2022-12-19T18:25:27;10.70;99.90
4530;DHT22;2277;51.626;7.516;2022-12-19T18:27:54;10.60;99.90
4530;DHT22;2277;51.626;7.516;2022-12-19T18:30:21;10.60;99.90
4530;DHT22;2277;51.626;7.516;2022-12-19T18:32:56;10.70;99.90
4530;DHT22;2277;51.626;7.516;2022-12-19T18:37:59;10.60;99.90
4530;DHT22;2277;51.626;7.516;2022-12-19T18:40:25;10.70;99.90
4530;DHT22;2277;51.626;7.516;2022-12-19T18:42:51;10.70;99.90
4530;DHT22;2277;51.626;7.516;2022-12-19T18:45:20;10.60;99.90
4530;DHT22;2277;51.626;7.516;2022-12-19T18:47:48;10.60;99.90
4530;DHT22;2277;51.626;7.516;2022-12-19T18:50:18;10.60;99.90
4530;DHT22;2277;51.626;7.516;2022-12-19T18:52:45;10.70;99.90
4530;DHT22;2277;51.626;7.516;2022-12-19T18:55:23;10.60;99.90
4530;DHT22;2277;51.626;7.516;2022-12-19T18:57:49;10.60;99.90
4530;DHT22;2277;51.626;7.516;2022-12-19T19:00:20;10.60;99.90